LIME/BGY METAR and TAF weather

Enter ICAO airport designator
Station Type Date Time Source
LIME METAR 2019/04/19 08:50 UTC NOAA

LIME 190850Z 13004KT 080V220 9999 FEW110 17/05 Q1031 NOSIG


Station Type Date Time Source
LIME Decoded METAR 2019/04/19 08:50 UTC NOAA

Bergamo / Orio Al Serio, Italy (LIME) 45-40N 009-42E 237M
Apr 19, 2019 - 04:50 AM EDT / 2019.04.19 0850 UTC
Wind: from the SE (130 degrees) at 5 MPH (4 KT) (direction variable):0
Visibility: greater than 7 mile(s):0
Sky conditions: mostly clear
Temperature: 62 F (17 C)
Dew Point: 41 F (5 C)
Relative Humidity: 45%
Pressure (altimeter): 30.45 in. Hg (1031 hPa)
ob: LIME 190850Z 13004KT 080V220 9999 FEW110 17/05 Q1031 NOSIG
cycle: 9

Station Type Date Time Source
LIME TAF 2019/04/19 06:21 UTC NOAA

TAF LIME 190500Z 1906/2006 VRB05KT 9999 SCT060

Example: see airport list